Flight Track Log - Related Links

Times and Time Zones

All times are in EDT time to prevent confusion due to time zone crossing. See the FSR103 flight status page for this flight to view local times or setup timezone preferences in your user account.

Time Position Orientation Groundspeed Altitude Reporting Facility
EDT Latitude Longitude Course Direction KTS MPH feet Rate Location/Type
Thu 09:46:59 PM 41.7756 -87.6769 186° South 260 299 3,600  Level Chicago Center
Thu 09:48:01 PM 41.7128 -87.7164 205° Southwest 258 297 5,900 1,645 Climbing Chicago Center
Thu 09:49:03 PM 41.6514 -87.7831 219° Southwest 278 320 7,000 1,984 Climbing Chicago Center
Thu 09:50:05 PM 41.5906 -87.8508 220° Southwest 286 329 10,000 2,371 Climbing Chicago Center
Thu 09:51:07 PM 41.5244 -87.9156 216° Southwest 297 342 11,900 968 Climbing Chicago Center
Thu 09:52:00 PM 41.3458 -87.8875 186° South  Level Estimated
Thu 09:52:09 PM 41.4333 -88.0047 216° Southwest 347 399 12,000  Level Chicago Center
Thu 09:53:10 PM 41.3511 -88.0369 196° South 371 427 12,000  Level Chicago Center
Thu 09:54:12 PM 41.2275 -88.0581 187° South 372 428 12,000  Level Chicago Center
Thu 09:55:14 PM 41.1222 -88.0786 188° South 382 440 12,000  Level Chicago Center
Thu 09:56:15 PM 41.0183 -88.0978 188° South 380 437 12,000 -146 Level Chicago Center
Thu 09:57:17 PM 40.9147 -88.1153 187° South 377 434 11,700 -390 Descending Chicago Center
Thu 09:58:18 PM 40.8111 -88.1361 189° South 378 435 11,200 -341 Descending Chicago Center
Thu 09:59:20 PM 40.7075 -88.1539 187° South 378 435 11,000 -97 Descending Chicago Center
Thu 10:00:22 PM 40.5856 -88.1767 188° South 374 430 11,000  Level Chicago Center
Thu 10:01:23 PM 40.4836 -88.2069 193° South 380 437 11,000 -195 Level Chicago Center
Thu 10:02:25 PM 40.3956 -88.2475 199° South 354 407 10,600 -1,268 Descending Chicago Center
Thu 10:03:26 PM 40.3208 -88.2800 198° South 310 357 8,400 -2,195 Descending Chicago Center
Thu 10:04:28 PM 40.2481 -88.3136 199° South 291 335 6,100 -2,244 Descending Chicago Center
Thu 10:05:29 PM 40.1781 -88.3461 200° South 278 320 3,800 -1,512 Descending Chicago Center
Thu 10:06:31 PM 40.1239 -88.3694 198° South 242 278 3,000 -780 Descending Chicago Center
Thu 10:07:32 PM 40.0892 -88.3411 148° Southeast 183 211 2,200 -787 Descending Chicago Center
Thu 10:09:00 PM 40.0388 -88.2778 180° South  Level Estimated
Thu 10:16:00 PM 40.0388 -88.2778 180° South  Level Estimated
Thu 10:17:00 PM 40.0388 -88.2778 180° South  Level Estimated

Login

Don't have an account? Register now (free) for customized features, flight alerts, and more!